createdAt,value
2023-05-06T04:37:41.390Z,19.88
2023-05-06T04:42:49.887Z,18.17
2023-05-06T04:47:57.680Z,19.45
2023-05-06T04:53:02.929Z,19.90
2023-05-06T04:58:06.169Z,19.90
2023-05-06T05:03:09.757Z,20.33
2023-05-06T05:08:14.602Z,22.00
2023-05-06T05:13:17.872Z,18.85
2023-05-06T05:18:22.405Z,19.92
2023-05-06T05:23:30.475Z,18.70
2023-05-06T05:28:34.128Z,19.50
2023-05-06T05:33:39.820Z,18.80
2023-05-06T05:38:48.709Z,18.45
2023-05-06T05:43:51.967Z,18.75
2023-05-06T05:48:55.621Z,18.33
2023-05-06T05:54:01.544Z,17.63
2023-05-06T05:59:05.220Z,19.65
2023-05-06T06:04:08.937Z,18.48
2023-05-06T06:09:13.712Z,16.90
2023-05-06T06:14:17.807Z,18.48
2023-05-06T06:19:23.563Z,18.40
2023-05-06T06:24:29.009Z,17.23
2023-05-06T06:29:33.272Z,18.02
2023-05-06T06:34:36.547Z,16.40
2023-05-06T06:39:41.430Z,18.35
2023-05-06T06:44:44.689Z,18.98
2023-05-06T06:49:47.862Z,17.55
2023-05-06T06:54:52.372Z,18.17
2023-05-06T06:59:55.779Z,17.13
2023-05-06T07:04:59.225Z,16.40
2023-05-06T07:10:03.858Z,17.52
2023-05-06T07:15:09.188Z,15.57
2023-05-06T07:20:13.626Z,17.08
2023-05-06T07:25:18.340Z,18.88
2023-05-06T07:30:23.163Z,16.65
2023-05-06T07:35:26.768Z,16.15
2023-05-06T07:40:31.403Z,16.27
2023-05-06T07:45:34.608Z,18.63
2023-05-06T07:50:37.779Z,18.58
2023-05-06T07:55:42.380Z,15.07
2023-05-06T08:00:45.553Z,16.55
2023-05-06T08:05:50.551Z,18.10
2023-05-06T08:10:55.326Z,18.65
2023-05-06T08:15:58.897Z,17.15
2023-05-06T08:21:02.356Z,16.58
2023-05-06T08:31:44.969Z,17.10
2023-05-06T08:36:48.340Z,16.67
2023-05-06T08:41:54.064Z,18.38
2023-05-06T08:46:58.782Z,15.18
2023-05-06T08:52:06.309Z,15.30
2023-05-06T08:57:13.195Z,13.32
2023-05-06T09:02:18.051Z,16.50
2023-05-06T09:07:22.685Z,15.70
2023-05-06T09:12:26.347Z,17.52
2023-05-06T09:17:33.054Z,12.20
2023-05-06T09:22:39.065Z,13.13
2023-05-06T09:27:42.605Z,12.10
2023-05-06T09:32:49.797Z,12.50
2023-05-06T09:37:53.161Z,16.40
2023-05-06T09:42:57.103Z,14.80
2023-05-06T09:48:02.157Z,13.00
2023-05-06T09:53:06.733Z,13.50
2023-05-06T09:58:11.115Z,13.95
2023-05-06T10:03:17.720Z,11.95
2023-05-06T10:08:21.472Z,14.32
2023-05-06T10:13:26.365Z,10.63
2023-05-06T10:18:31.860Z,9.68
2023-05-06T10:23:44.338Z,9.60
2023-05-06T10:28:52.755Z,8.63
2023-05-06T10:34:01.938Z,7.85
2023-05-06T10:39:07.566Z,7.60
2023-05-06T10:44:12.054Z,7.10
2023-05-06T10:49:20.944Z,9.55
2023-05-06T10:54:27.808Z,8.93
2023-05-06T10:59:31.548Z,7.95
2023-05-06T11:04:37.560Z,6.72
2023-05-06T11:09:57.277Z,7.45
2023-05-06T11:15:20.953Z,8.48
2023-05-06T11:20:27.205Z,6.32
2023-05-06T11:25:45.243Z,11.30
2023-05-06T11:30:56.557Z,8.55
2023-05-06T11:36:01.748Z,8.90
2023-05-06T11:41:05.617Z,8.68
2023-05-06T11:46:09.005Z,9.48
2023-05-06T11:51:13.848Z,7.75
2023-05-06T11:56:17.097Z,9.40
2023-05-06T12:01:20.218Z,7.43
2023-05-06T12:06:35.198Z,6.32
2023-05-06T12:11:39.618Z,6.75
2023-05-06T12:16:43.156Z,7.28
2023-05-06T12:21:47.973Z,9.45
2023-05-06T12:26:51.938Z,10.05
2023-05-06T12:32:09.206Z,7.55
2023-05-06T12:37:25.829Z,7.50
2023-05-06T12:42:29.223Z,8.98
2023-05-06T12:47:32.434Z,8.35
2023-05-06T12:52:45.078Z,9.00
2023-05-06T12:57:49.252Z,10.38
2023-05-06T13:02:52.632Z,7.07
2023-05-06T13:07:57.259Z,7.35
2023-05-06T13:13:00.588Z,7.38
2023-05-06T13:18:04.255Z,7.60
2023-05-06T13:23:08.939Z,7.18
2023-05-06T13:28:12.160Z,5.32
2023-05-06T13:33:15.422Z,6.30
2023-05-06T13:38:20.497Z,6.35
2023-05-06T13:43:25.686Z,6.90
2023-05-06T13:48:29.360Z,5.32
2023-05-06T13:53:35.032Z,5.78
2023-05-06T13:58:38.377Z,6.45
2023-05-06T14:03:41.584Z,5.28
2023-05-06T14:08:47.041Z,6.13
2023-05-06T14:13:50.494Z,5.05
2023-05-06T14:18:53.681Z,5.35
2023-05-06T14:23:59.053Z,5.40
2023-05-06T14:29:02.589Z,5.05
2023-05-06T14:34:05.913Z,5.57
2023-05-06T14:39:10.637Z,5.85
2023-05-06T14:44:13.887Z,5.28
2023-05-06T14:49:17.080Z,4.63
2023-05-06T14:54:21.698Z,4.20
2023-05-06T14:59:24.827Z,6.43
2023-05-06T15:04:28.518Z,5.32
2023-05-06T15:09:33.365Z,7.55
2023-05-06T15:14:37.291Z,7.40
2023-05-06T15:19:40.595Z,9.80
2023-05-06T15:24:46.247Z,6.03
2023-05-06T15:29:49.520Z,7.20
2023-05-06T15:34:52.772Z,6.97
2023-05-06T15:39:57.686Z,10.20
2023-05-06T15:45:00.917Z,9.13
2023-05-06T15:50:14.068Z,9.18
2023-05-06T15:55:29.769Z,9.38
2023-05-06T16:00:32.933Z,7.28
2023-05-06T16:05:36.303Z,9.07
2023-05-06T16:10:41.196Z,7.97
2023-05-06T16:15:44.939Z,10.18
2023-05-06T16:20:48.429Z,9.02
2023-05-06T16:25:52.888Z,9.88
2023-05-06T16:30:56.259Z,7.93
2023-05-06T16:35:59.543Z,8.85
2023-05-06T16:41:04.340Z,10.45
2023-05-06T16:46:07.588Z,9.98
2023-05-06T16:51:12.332Z,8.35
2023-05-06T16:56:16.815Z,8.68
2023-05-06T17:01:20.208Z,8.93
2023-05-06T17:06:24.764Z,4.45
2023-05-06T17:11:29.610Z,6.53
2023-05-06T17:16:32.939Z,4.90
2023-05-06T17:21:36.342Z,5.75
2023-05-06T17:26:41.807Z,4.90
2023-05-06T17:31:45.279Z,6.03
2023-05-06T17:36:48.509Z,6.45
2023-05-06T17:41:53.355Z,5.15
2023-05-06T17:46:57.316Z,5.43
2023-05-06T17:52:01.700Z,6.18
2023-05-06T17:57:06.740Z,4.25
2023-05-06T18:02:13.957Z,4.50
2023-05-06T18:07:17.375Z,4.63
2023-05-06T18:12:22.238Z,4.63
2023-05-06T18:17:25.766Z,4.65
2023-05-06T18:22:29.164Z,5.15
2023-05-06T18:27:34.033Z,5.70
2023-05-06T18:32:37.990Z,6.28
2023-05-06T18:37:41.485Z,4.68
2023-05-06T18:42:47.417Z,5.05
2023-05-06T18:47:50.764Z,5.68
2023-05-06T18:52:56.229Z,5.72
2023-05-06T18:58:05.590Z,9.52
2023-05-06T19:03:09.506Z,7.50
2023-05-06T19:08:13.755Z,6.75
2023-05-06T19:13:18.743Z,9.32
2023-05-06T19:18:22.108Z,11.68
2023-05-06T19:23:25.470Z,9.60
2023-05-06T19:28:30.266Z,10.63
2023-05-06T19:33:33.546Z,11.80
2023-05-06T19:38:36.860Z,9.70
2023-05-06T19:43:45.341Z,12.63
2023-05-06T19:48:48.642Z,13.07
2023-05-06T19:53:51.933Z,14.77
2023-05-06T19:58:56.775Z,13.35
2023-05-06T20:04:00.307Z,14.10
2023-05-06T20:09:04.196Z,15.52
2023-05-06T20:14:09.030Z,13.43
2023-05-06T20:19:12.575Z,14.02
2023-05-06T20:24:16.314Z,12.15
2023-05-06T20:29:21.328Z,13.88
2023-05-06T20:34:24.700Z,13.75
2023-05-06T20:39:28.209Z,13.82
2023-05-06T20:44:33.215Z,14.88
2023-05-06T20:49:36.769Z,13.63
2023-05-06T20:54:40.356Z,20.75
2023-05-06T20:59:46.041Z,21.13
2023-05-06T21:04:49.455Z,22.17
2023-05-06T21:09:52.835Z,22.88
2023-05-06T21:14:59.188Z,25.55
2023-05-06T21:20:06.933Z,23.33
2023-05-06T21:25:13.425Z,25.58
2023-05-06T21:30:19.019Z,22.50
2023-05-06T21:35:24.961Z,22.35
2023-05-06T21:40:28.283Z,23.98
2023-05-06T21:45:32.975Z,24.90
2023-05-06T21:50:37.950Z,23.92
2023-05-06T21:55:41.651Z,24.33
2023-05-06T22:00:46.482Z,23.95
2023-05-06T22:05:50.018Z,23.60
2023-05-06T22:10:53.656Z,24.70
2023-05-06T22:15:58.389Z,22.45
2023-05-06T22:21:01.840Z,21.08
2023-05-06T22:26:05.293Z,20.98
2023-05-06T22:31:10.180Z,21.80
2023-05-06T22:36:13.519Z,24.13
2023-05-06T22:41:18.305Z,20.60
2023-05-06T22:46:23.208Z,23.23
2023-05-06T22:51:26.497Z,22.27
2023-05-06T22:56:29.862Z,22.83
2023-05-06T23:01:35.104Z,20.95
2023-05-06T23:06:38.436Z,19.95
2023-05-06T23:11:41.908Z,22.08
2023-05-06T23:16:46.754Z,24.90
2023-05-06T23:21:50.053Z,22.85
2023-05-06T23:26:53.387Z,22.10
2023-05-06T23:31:58.034Z,22.83
2023-05-06T23:37:01.436Z,21.30
2023-05-06T23:42:05.042Z,22.75
2023-05-06T23:47:09.760Z,25.15
2023-05-06T23:52:13.709Z,24.08
2023-05-06T23:57:16.999Z,17.83
